createdAt,value
2018-07-12T00:02:14.276Z,14.67
2018-07-12T00:04:42.014Z,12.90
2018-07-12T00:07:09.746Z,14.37
2018-07-12T00:09:37.485Z,14.03
2018-07-12T00:12:05.205Z,11.70
2018-07-12T00:14:33.880Z,12.53
2018-07-12T00:17:01.854Z,11.50
2018-07-12T00:19:29.581Z,11.80
2018-07-12T00:21:57.309Z,12.77
2018-07-12T00:24:25.033Z,11.30
2018-07-12T00:26:53.394Z,11.83
2018-07-12T00:29:21.113Z,11.60
2018-07-12T00:31:48.858Z,10.33
2018-07-12T00:34:16.578Z,11.97
2018-07-12T00:36:44.317Z,13.57
2018-07-12T00:39:12.034Z,11.37
2018-07-12T00:41:39.749Z,13.53
2018-07-12T00:44:07.481Z,13.57
2018-07-12T00:46:35.231Z,13.33
2018-07-12T00:49:03.212Z,9.70
2018-07-12T00:51:30.942Z,11.27
2018-07-12T00:53:58.681Z,13.37
2018-07-12T00:56:26.397Z,13.80
2018-07-12T00:58:54.122Z,10.83
2018-07-12T01:01:21.847Z,12.67
2018-07-12T01:03:49.597Z,15.00
2018-07-12T01:06:17.316Z,14.73
2018-07-12T01:08:45.042Z,15.67
2018-07-12T01:11:12.768Z,15.00
2018-07-12T01:13:40.513Z,16.40
2018-07-12T01:16:08.257Z,15.47
2018-07-12T01:18:36.014Z,16.27
2018-07-12T01:21:03.738Z,15.23
2018-07-12T01:23:31.465Z,15.63
2018-07-12T01:25:59.201Z,16.60
2018-07-12T01:28:26.925Z,16.70
2018-07-12T01:30:54.685Z,13.53
2018-07-12T01:33:22.409Z,15.27
2018-07-12T01:35:50.173Z,14.47
2018-07-12T01:38:17.897Z,17.40
2018-07-12T01:40:45.618Z,13.77
2018-07-12T01:43:13.398Z,15.73
2018-07-12T01:45:41.137Z,16.07
2018-07-12T01:48:08.867Z,17.40
2018-07-12T01:50:36.664Z,15.83
2018-07-12T01:53:04.397Z,13.30
2018-07-12T01:55:32.189Z,15.87
2018-07-12T01:57:59.925Z,16.20
2018-07-12T02:00:27.806Z,16.80
2018-07-12T02:02:55.516Z,18.03
2018-07-12T02:05:23.341Z,17.63
2018-07-12T02:07:51.057Z,17.27
2018-07-12T02:10:18.804Z,15.80
2018-07-12T02:12:46.529Z,17.50
2018-07-12T02:15:14.257Z,14.20
2018-07-12T02:17:42.027Z,13.67
2018-07-12T02:20:09.749Z,14.40
2018-07-12T02:22:37.481Z,16.57
2018-07-12T02:25:05.213Z,16.53
2018-07-12T02:27:32.968Z,16.53
2018-07-12T02:30:00.670Z,15.10
2018-07-12T02:32:28.841Z,15.77
2018-07-12T02:34:56.843Z,15.73
2018-07-12T02:37:24.674Z,14.93
2018-07-12T02:39:52.395Z,15.90
2018-07-12T02:42:20.245Z,16.67
2018-07-12T02:44:47.961Z,14.53
2018-07-12T02:47:15.697Z,15.77
2018-07-12T02:49:43.446Z,15.37
2018-07-12T02:52:11.192Z,15.93
2018-07-12T02:54:38.910Z,15.57
2018-07-12T02:57:06.671Z,15.20
2018-07-12T02:59:34.411Z,16.23
2018-07-12T03:02:02.446Z,19.53
2018-07-12T03:04:30.356Z,13.73
2018-07-12T03:06:58.113Z,16.77
2018-07-12T03:09:25.849Z,16.13
2018-07-12T03:11:53.573Z,14.93
2018-07-12T03:14:21.305Z,16.23
2018-07-12T03:16:49.038Z,18.50
2018-07-12T03:19:16.781Z,16.20
2018-07-12T03:21:44.510Z,16.23
2018-07-12T03:24:12.242Z,16.23
2018-07-12T03:26:39.985Z,17.53
2018-07-12T03:29:07.705Z,15.13
2018-07-12T03:31:35.446Z,13.83
2018-07-12T03:34:03.165Z,16.00
2018-07-12T03:36:30.896Z,14.33
2018-07-12T03:38:58.617Z,15.07
2018-07-12T03:41:26.358Z,15.90
2018-07-12T03:43:54.101Z,15.73
2018-07-12T03:46:22.751Z,14.83
2018-07-12T03:48:50.570Z,15.53
2018-07-12T03:51:18.282Z,15.53
2018-07-12T03:53:46.021Z,15.93
2018-07-12T03:56:13.737Z,15.30
2018-07-12T03:58:41.555Z,16.20
2018-07-12T04:01:09.273Z,15.30
2018-07-12T04:03:37.042Z,18.20
2018-07-12T04:06:04.740Z,17.53
2018-07-12T04:08:32.471Z,17.27
2018-07-12T04:11:00.293Z,16.00
2018-07-12T04:13:27.934Z,15.90
2018-07-12T04:15:55.657Z,15.93
2018-07-12T04:18:23.387Z,17.60
2018-07-12T04:20:51.138Z,17.00
2018-07-12T04:23:18.845Z,15.87
2018-07-12T04:26:07.138Z,15.47
2018-07-12T04:28:34.855Z,16.77
2018-07-12T04:31:02.580Z,15.57
2018-07-12T04:33:30.316Z,17.73
2018-07-12T04:35:58.037Z,15.80
2018-07-12T04:38:25.761Z,13.90
2018-07-12T04:40:53.579Z,17.37
2018-07-12T04:43:21.393Z,14.30
2018-07-12T04:45:49.126Z,14.20
2018-07-12T04:48:16.860Z,16.10
2018-07-12T04:50:44.585Z,13.70
2018-07-12T04:53:12.326Z,16.20
2018-07-12T04:55:40.053Z,17.00
2018-07-12T04:58:07.836Z,14.17
2018-07-12T05:00:35.497Z,14.87
2018-07-12T05:03:03.219Z,12.70
2018-07-12T05:05:30.958Z,14.23
2018-07-12T05:07:58.685Z,12.67
2018-07-12T05:10:36.632Z,16.37
2018-07-12T05:13:04.349Z,14.20
2018-07-12T05:15:32.089Z,12.97
2018-07-12T05:17:59.809Z,13.20
2018-07-12T05:20:27.541Z,12.13
2018-07-12T05:22:55.306Z,11.33
2018-07-12T05:25:23.076Z,16.23
2018-07-12T05:27:50.795Z,14.47
2018-07-12T05:30:18.529Z,14.07
2018-07-12T05:32:46.261Z,17.10
2018-07-12T05:35:13.988Z,16.80
2018-07-12T05:37:42.845Z,15.13
2018-07-12T05:40:11.704Z,15.83
2018-07-12T05:42:40.537Z,13.67
2018-07-12T05:45:09.409Z,16.30
2018-07-12T05:47:42.670Z,18.50
2018-07-12T05:50:11.963Z,17.33
2018-07-12T05:52:41.074Z,19.27
2018-07-12T05:55:10.189Z,20.93
2018-07-12T05:57:39.354Z,19.63
2018-07-12T06:00:08.510Z,19.20
2018-07-12T06:02:38.069Z,17.33
2018-07-12T06:05:07.225Z,17.63
2018-07-12T06:07:36.330Z,22.33
2018-07-12T06:10:05.921Z,20.90
2018-07-12T06:12:35.026Z,16.63
2018-07-12T06:15:04.321Z,19.80
2018-07-12T06:17:33.465Z,17.97
2018-07-12T06:20:03.742Z,18.60
2018-07-12T06:22:32.866Z,21.70
2018-07-12T06:25:02.046Z,19.53
2018-07-12T06:27:31.154Z,24.57
2018-07-12T06:30:00.315Z,24.07
2018-07-12T06:32:29.433Z,20.83
2018-07-12T06:34:58.577Z,20.37
2018-07-12T06:37:27.721Z,25.50
2018-07-12T06:39:56.838Z,22.80
2018-07-12T06:42:27.081Z,29.47
2018-07-12T06:44:56.125Z,27.80
2018-07-12T06:47:25.284Z,34.97
2018-07-12T06:49:54.630Z,32.77
2018-07-12T06:52:23.746Z,28.93
2018-07-12T06:54:52.870Z,36.60
2018-07-12T06:57:24.018Z,39.10
2018-07-12T06:59:53.131Z,45.80
2018-07-12T07:02:24.310Z,36.67
2018-07-12T07:04:53.429Z,39.83
2018-07-12T07:07:22.561Z,41.20
2018-07-12T07:09:51.669Z,46.70
2018-07-12T07:12:20.797Z,45.33
2018-07-12T07:14:50.325Z,44.63
2018-07-12T07:17:19.398Z,46.20
2018-07-12T07:19:48.503Z,44.60
2018-07-12T07:22:18.650Z,48.73
2018-07-12T07:24:47.811Z,43.87
2018-07-12T07:27:16.937Z,43.93
2018-07-12T07:29:46.073Z,41.43
2018-07-12T07:32:15.197Z,39.80
2018-07-12T07:34:44.433Z,38.90
2018-07-12T07:37:13.542Z,32.87
2018-07-12T07:39:42.688Z,37.97
2018-07-12T07:42:11.784Z,41.17
2018-07-12T07:44:40.961Z,41.07
2018-07-12T07:47:10.150Z,41.07
2018-07-12T07:49:39.861Z,40.93
2018-07-12T07:52:08.993Z,41.90
2018-07-12T07:54:38.093Z,42.80
2018-07-12T07:57:07.222Z,39.73
2018-07-12T07:59:36.324Z,40.43
2018-07-12T08:02:05.449Z,42.10
2018-07-12T08:04:34.585Z,44.30
2018-07-12T08:07:03.766Z,39.20
2018-07-12T08:09:33.319Z,42.87
2018-07-12T08:12:02.563Z,44.83
2018-07-12T08:14:31.692Z,45.10
2018-07-12T08:17:00.820Z,45.40
2018-07-12T08:19:29.961Z,44.37
2018-07-12T08:22:06.500Z,47.73
2018-07-12T08:24:36.233Z,48.83
2018-07-12T08:27:05.841Z,45.97
2018-07-12T08:29:35.162Z,45.47
2018-07-12T08:32:05.089Z,44.30
2018-07-12T08:34:34.305Z,45.53
2018-07-12T08:37:03.500Z,47.13
2018-07-12T08:39:32.577Z,44.90
2018-07-12T08:42:01.711Z,40.83
2018-07-12T08:44:30.848Z,43.13
2018-07-12T08:46:59.960Z,41.13
2018-07-12T08:49:29.159Z,42.33
2018-07-12T08:51:58.312Z,42.93
2018-07-12T08:54:27.425Z,41.87
2018-07-12T08:56:56.564Z,42.63
2018-07-12T08:59:25.748Z,42.33
2018-07-12T09:01:54.864Z,41.20
2018-07-12T09:04:23.969Z,39.97
2018-07-12T09:06:53.075Z,40.10
2018-07-12T09:09:22.177Z,40.80
2018-07-12T09:11:51.410Z,41.63
2018-07-12T09:14:20.497Z,43.03
2018-07-12T09:16:49.614Z,39.73
2018-07-12T09:19:18.762Z,38.23
2018-07-12T09:21:47.931Z,38.60
2018-07-12T09:24:17.045Z,37.90
2018-07-12T09:26:46.380Z,39.97
2018-07-12T09:29:15.531Z,40.07
2018-07-12T09:31:44.610Z,38.43
2018-07-12T09:34:13.733Z,38.30
2018-07-12T09:36:42.873Z,38.50
2018-07-12T09:39:11.977Z,38.03
2018-07-12T09:41:41.082Z,38.47
2018-07-12T09:44:10.206Z,37.90
2018-07-12T09:46:39.354Z,37.43
2018-07-12T09:49:08.663Z,38.23
2018-07-12T09:51:37.642Z,38.97
2018-07-12T09:54:06.800Z,38.23
2018-07-12T09:56:47.209Z,39.80
2018-07-12T09:59:16.285Z,40.03
2018-07-12T10:01:50.764Z,39.30
2018-07-12T10:04:19.900Z,37.50
2018-07-12T10:06:50.921Z,39.93
2018-07-12T10:09:25.318Z,38.50
2018-07-12T10:11:59.497Z,38.13
2018-07-12T10:14:33.933Z,31.80
2018-07-12T10:17:08.462Z,29.37
2018-07-12T10:19:37.578Z,29.30
2018-07-12T10:22:06.849Z,32.07
2018-07-12T10:24:35.953Z,37.40
2018-07-12T10:27:05.190Z,37.23
2018-07-12T10:29:34.342Z,35.87
2018-07-12T10:32:03.665Z,36.20
2018-07-12T10:34:32.761Z,34.20
2018-07-12T10:37:01.906Z,32.73
2018-07-12T10:39:31.013Z,35.53
2018-07-12T10:42:00.155Z,32.60
2018-07-12T10:44:29.295Z,28.80
2018-07-12T10:46:58.411Z,30.33
2018-07-12T10:49:27.522Z,27.47
2018-07-12T10:51:56.665Z,25.07
2018-07-12T10:54:25.769Z,25.87
2018-07-12T10:56:54.892Z,23.87
2018-07-12T10:59:24.066Z,25.13
2018-07-12T11:01:53.178Z,24.67
2018-07-12T11:04:23.225Z,22.93
2018-07-12T11:06:53.090Z,20.03
2018-07-12T11:09:22.290Z,20.10
2018-07-12T11:11:51.981Z,19.47
2018-07-12T11:14:21.125Z,20.33
2018-07-12T11:16:50.266Z,18.83
2018-07-12T11:19:19.393Z,15.27
2018-07-12T11:21:48.546Z,13.00
2018-07-12T11:24:17.670Z,12.53
2018-07-12T11:26:46.826Z,12.67
2018-07-12T11:29:15.986Z,12.27
2018-07-12T11:31:45.121Z,12.57
2018-07-12T11:34:14.265Z,20.30
2018-07-12T11:36:43.417Z,21.97
2018-07-12T11:39:12.533Z,22.53
2018-07-12T11:41:41.690Z,22.93
2018-07-12T11:44:10.782Z,22.90
2018-07-12T11:46:39.941Z,23.00
2018-07-12T11:49:09.055Z,21.67
2018-07-12T11:51:38.153Z,21.37
2018-07-12T11:54:07.259Z,20.00
2018-07-12T11:56:36.389Z,18.17
2018-07-12T11:59:05.663Z,18.67
2018-07-12T12:01:34.815Z,19.77
2018-07-12T12:04:03.927Z,19.07
2018-07-12T12:06:33.030Z,20.13
2018-07-12T12:09:02.161Z,21.23
2018-07-12T12:11:31.281Z,19.50
2018-07-12T12:14:00.413Z,21.43
2018-07-12T12:16:29.554Z,18.67
2018-07-12T12:18:58.665Z,17.10
2018-07-12T12:21:27.773Z,18.53
2018-07-12T12:23:56.901Z,17.83
2018-07-12T12:26:26.048Z,17.90
2018-07-12T12:28:55.182Z,18.47
2018-07-12T12:31:24.299Z,16.60
2018-07-12T12:33:53.418Z,20.17
2018-07-12T12:36:22.549Z,17.97
2018-07-12T12:38:52.144Z,16.43
2018-07-12T12:41:21.317Z,16.40
2018-07-12T12:43:50.429Z,13.20
2018-07-12T12:46:19.586Z,14.43
2018-07-12T12:48:48.689Z,14.20
2018-07-12T12:51:25.165Z,13.47
2018-07-12T12:53:54.261Z,13.37
2018-07-12T12:56:23.390Z,13.27
2018-07-12T12:58:52.505Z,15.73
2018-07-12T13:01:21.649Z,16.90
2018-07-12T13:03:50.737Z,15.83
2018-07-12T13:06:19.929Z,15.67
2018-07-12T13:08:49.057Z,14.90
2018-07-12T13:11:18.191Z,15.57
2018-07-12T13:13:47.693Z,15.33
2018-07-12T13:16:16.934Z,15.97
2018-07-12T13:18:46.079Z,15.80
2018-07-12T13:21:15.206Z,14.77
2018-07-12T13:23:44.325Z,13.87
2018-07-12T13:26:14.666Z,14.47
2018-07-12T13:28:43.773Z,15.10
2018-07-12T13:31:12.960Z,14.57
2018-07-12T13:33:42.109Z,13.30
2018-07-12T13:36:11.246Z,14.70
2018-07-12T13:38:40.337Z,13.23
2018-07-12T13:41:09.465Z,13.67
2018-07-12T13:43:38.604Z,13.10
2018-07-12T13:46:07.869Z,14.20
2018-07-12T13:48:37.137Z,14.20
2018-07-12T13:51:06.366Z,13.90
2018-07-12T13:53:35.805Z,16.77
2018-07-12T13:56:04.961Z,13.83
2018-07-12T13:58:34.098Z,15.37
2018-07-12T14:01:03.255Z,14.03
2018-07-12T14:03:32.370Z,14.70
2018-07-12T14:06:01.506Z,15.77
2018-07-12T14:08:30.613Z,15.43
2018-07-12T14:10:59.747Z,15.70
2018-07-12T14:13:28.893Z,14.80
2018-07-12T14:15:58.070Z,13.40
2018-07-12T14:18:27.201Z,13.50
2018-07-12T14:20:56.325Z,15.23
2018-07-12T14:23:25.457Z,14.50
2018-07-12T14:25:54.629Z,14.70
2018-07-12T14:28:23.782Z,13.67
2018-07-12T14:30:52.909Z,14.13
2018-07-12T14:33:22.025Z,13.87
2018-07-12T14:35:51.146Z,13.57
2018-07-12T14:38:20.254Z,13.93
2018-07-12T14:40:50.457Z,13.87
2018-07-12T14:43:19.568Z,13.73
2018-07-12T14:45:48.713Z,12.40
2018-07-12T14:48:17.822Z,14.37
2018-07-12T14:50:49.089Z,14.13
2018-07-12T14:53:18.177Z,13.83
2018-07-12T14:55:47.380Z,13.83
2018-07-12T14:58:16.632Z,12.70
2018-07-12T15:00:45.833Z,12.70
2018-07-12T15:03:14.921Z,14.33
2018-07-12T15:05:51.405Z,13.30
2018-07-12T15:08:20.535Z,13.50
2018-07-12T15:10:49.688Z,14.07
2018-07-12T15:13:18.811Z,12.73
2018-07-12T15:15:47.910Z,13.33
2018-07-12T15:18:17.026Z,12.57
2018-07-12T15:20:46.137Z,14.43
2018-07-12T15:23:15.278Z,13.67
2018-07-12T15:25:44.446Z,13.40
2018-07-12T15:28:13.573Z,12.57
2018-07-12T15:30:42.678Z,12.47
2018-07-12T15:33:11.808Z,12.17
2018-07-12T15:35:40.945Z,12.57
2018-07-12T15:38:10.037Z,12.90
2018-07-12T15:40:39.170Z,12.63
2018-07-12T15:43:08.402Z,13.07
2018-07-12T15:45:37.519Z,13.40
2018-07-12T15:48:06.641Z,12.70
2018-07-12T15:50:35.774Z,13.47
2018-07-12T15:53:06.017Z,14.73
2018-07-12T15:55:35.119Z,12.97
2018-07-12T15:58:04.257Z,14.13
2018-07-12T16:00:33.401Z,14.93
2018-07-12T16:03:02.537Z,15.57
2018-07-12T16:05:32.098Z,14.17
2018-07-12T16:08:01.221Z,13.93
2018-07-12T16:10:30.338Z,14.33
2018-07-12T16:12:59.465Z,13.30
2018-07-12T16:15:28.637Z,13.37
2018-07-12T16:17:57.789Z,13.97
2018-07-12T16:20:26.925Z,14.20
2018-07-12T16:22:56.047Z,13.50
2018-07-12T16:25:25.194Z,14.50
2018-07-12T16:27:54.325Z,14.27
2018-07-12T16:30:23.466Z,13.20
2018-07-12T16:32:52.616Z,14.63
2018-07-12T16:35:26.391Z,14.27
2018-07-12T16:37:55.833Z,14.53
2018-07-12T16:40:24.963Z,14.53
2018-07-12T16:42:54.120Z,14.57
2018-07-12T16:45:23.223Z,14.33
2018-07-12T16:47:52.363Z,13.40
2018-07-12T16:50:21.494Z,15.57
2018-07-12T16:52:50.625Z,15.13
2018-07-12T16:55:19.726Z,13.77
2018-07-12T16:57:48.841Z,13.60
2018-07-12T17:00:19.957Z,15.87
2018-07-12T17:02:49.921Z,15.07
2018-07-12T17:05:19.063Z,15.63
2018-07-12T17:07:48.325Z,14.27
2018-07-12T17:10:17.365Z,14.87
2018-07-12T17:12:46.546Z,13.97
2018-07-12T17:15:15.646Z,14.10
2018-07-12T17:17:44.794Z,13.67
2018-07-12T17:20:13.962Z,13.93
2018-07-12T17:22:43.063Z,13.43
2018-07-12T17:25:12.169Z,15.33
2018-07-12T17:27:41.325Z,14.10
2018-07-12T17:30:10.482Z,13.83
2018-07-12T17:32:39.708Z,13.73
2018-07-12T17:35:08.875Z,13.30
2018-07-12T17:37:37.989Z,13.50
2018-07-12T17:40:07.098Z,13.27
2018-07-12T17:42:36.217Z,13.13
2018-07-12T17:45:05.328Z,12.10
2018-07-12T17:47:34.491Z,13.00
2018-07-12T17:50:03.589Z,11.27
2018-07-12T17:52:33.089Z,11.87
2018-07-12T17:55:02.213Z,10.13
2018-07-12T17:57:31.325Z,11.27
2018-07-12T18:00:00.441Z,11.20
2018-07-12T18:02:29.602Z,10.77
2018-07-12T18:04:58.724Z,11.07
2018-07-12T18:07:27.829Z,12.27
2018-07-12T18:09:56.954Z,11.20
2018-07-12T18:12:26.064Z,10.70
2018-07-12T18:14:55.178Z,10.80
2018-07-12T18:17:24.277Z,11.27
2018-07-12T18:19:53.389Z,10.73
2018-07-12T18:22:22.542Z,11.00
2018-07-12T18:24:51.657Z,11.40
2018-07-12T18:27:20.768Z,11.30
2018-07-12T18:29:50.935Z,11.27
2018-07-12T18:32:20.049Z,12.50
2018-07-12T18:34:49.185Z,11.57
2018-07-12T18:37:18.321Z,11.93
2018-07-12T18:39:47.433Z,10.83
2018-07-12T18:42:16.557Z,11.80
2018-07-12T18:44:45.727Z,12.87
2018-07-12T18:47:14.861Z,13.37
2018-07-12T18:49:44.035Z,13.63
2018-07-12T18:52:13.165Z,12.93
2018-07-12T18:54:42.305Z,12.57
2018-07-12T18:57:11.588Z,12.73
2018-07-12T18:59:40.762Z,12.10
2018-07-12T19:02:09.925Z,12.73
2018-07-12T19:04:39.145Z,14.20
2018-07-12T19:07:08.266Z,14.23
2018-07-12T19:09:37.406Z,13.80
2018-07-12T19:12:06.544Z,15.03
2018-07-12T19:14:35.654Z,15.63
2018-07-12T19:17:04.806Z,14.43
2018-07-12T19:19:33.920Z,14.40
2018-07-12T19:22:03.197Z,13.80
2018-07-12T19:24:32.329Z,13.50
2018-07-12T19:27:01.438Z,14.03
2018-07-12T19:29:30.579Z,15.00
2018-07-12T19:32:00.012Z,13.70
2018-07-12T19:34:29.174Z,14.40
2018-07-12T19:36:58.302Z,13.73
2018-07-12T19:39:27.473Z,13.57
2018-07-12T19:41:56.630Z,14.47
2018-07-12T19:44:25.733Z,13.87
2018-07-12T19:46:54.934Z,13.20
2018-07-12T19:49:24.133Z,14.30
2018-07-12T19:51:54.385Z,14.03
2018-07-12T19:54:25.165Z,15.07
2018-07-12T19:56:55.041Z,15.20
2018-07-12T19:59:24.149Z,17.33
2018-07-12T20:01:53.249Z,18.70
2018-07-12T20:04:22.408Z,16.27
2018-07-12T20:06:51.680Z,17.93
2018-07-12T20:09:20.857Z,17.23
2018-07-12T20:11:52.077Z,14.50
2018-07-12T20:14:21.197Z,17.70
2018-07-12T20:16:50.316Z,16.03
2018-07-12T20:19:19.582Z,16.03
2018-07-12T20:21:48.706Z,16.03
2018-07-12T20:24:17.833Z,15.73
2018-07-12T20:26:47.018Z,17.07
2018-07-12T20:29:16.538Z,15.17
2018-07-12T20:31:46.782Z,16.87
2018-07-12T20:34:16.010Z,16.90
2018-07-12T20:36:45.129Z,16.00
2018-07-12T20:39:14.237Z,16.37
2018-07-12T20:41:48.729Z,16.43
2018-07-12T20:44:17.847Z,16.87
2018-07-12T20:46:50.673Z,16.10
2018-07-12T20:49:19.813Z,16.33
2018-07-12T20:51:50.005Z,15.80
2018-07-12T20:54:19.290Z,16.03
2018-07-12T20:56:48.418Z,16.23
2018-07-12T20:59:17.568Z,14.60
2018-07-12T21:01:46.701Z,14.87
2018-07-12T21:04:15.856Z,14.83
2018-07-12T21:06:44.985Z,14.17
2018-07-12T21:09:14.089Z,14.33
2018-07-12T21:11:43.286Z,14.30
2018-07-12T21:14:12.446Z,14.53
2018-07-12T21:16:41.569Z,14.87
2018-07-12T21:19:10.717Z,14.70
2018-07-12T21:21:39.862Z,14.93
2018-07-12T21:24:08.982Z,14.80
2018-07-12T21:26:38.319Z,15.37
2018-07-12T21:29:07.450Z,15.30
2018-07-12T21:31:36.576Z,15.13
2018-07-12T21:34:05.716Z,15.57
2018-07-12T21:36:34.861Z,15.07
2018-07-12T21:39:05.001Z,15.90
2018-07-12T21:41:34.210Z,14.20
2018-07-12T21:44:03.361Z,15.53
2018-07-12T21:46:33.576Z,14.77
2018-07-12T21:49:03.003Z,15.27
2018-07-12T21:51:32.185Z,15.00
2018-07-12T21:54:01.290Z,14.60
2018-07-12T21:56:30.443Z,15.03
2018-07-12T21:58:59.565Z,14.30
2018-07-12T22:01:28.702Z,15.00
2018-07-12T22:03:57.847Z,14.47
2018-07-12T22:06:38.201Z,14.40
2018-07-12T22:09:08.081Z,13.97
2018-07-12T22:11:37.234Z,14.73
2018-07-12T22:14:06.348Z,14.50
2018-07-12T22:16:35.510Z,14.57
2018-07-12T22:19:04.757Z,15.23
2018-07-12T22:21:33.932Z,14.73
2018-07-12T22:24:03.126Z,15.33
2018-07-12T22:26:32.272Z,16.20
2018-07-12T22:29:01.367Z,14.83
2018-07-12T22:31:30.544Z,15.03
2018-07-12T22:33:59.706Z,15.30
2018-07-12T22:36:29.293Z,16.30
2018-07-12T22:38:58.401Z,15.20
2018-07-12T22:41:27.533Z,15.00
2018-07-12T22:43:56.648Z,14.57
2018-07-12T22:46:25.769Z,14.63
2018-07-12T22:48:55.021Z,14.07
2018-07-12T22:51:24.206Z,13.80
2018-07-12T22:53:53.325Z,14.37
2018-07-12T22:56:22.656Z,15.00
2018-07-12T22:58:51.918Z,16.10
2018-07-12T23:01:21.034Z,14.00
2018-07-12T23:03:50.158Z,14.93
2018-07-12T23:06:19.336Z,13.57
2018-07-12T23:08:48.435Z,14.27
2018-07-12T23:11:17.680Z,15.67
2018-07-12T23:13:46.793Z,15.20
2018-07-12T23:16:15.959Z,15.27
2018-07-12T23:18:45.068Z,13.73
2018-07-12T23:21:14.205Z,14.23
2018-07-12T23:23:43.329Z,15.17
2018-07-12T23:26:13.227Z,14.30
2018-07-12T23:28:42.333Z,14.63
2018-07-12T23:31:11.461Z,14.27
2018-07-12T23:33:40.685Z,14.20
2018-07-12T23:36:09.803Z,14.90
2018-07-12T23:38:38.897Z,13.30
2018-07-12T23:41:08.017Z,13.30
2018-07-12T23:43:37.164Z,13.30
2018-07-12T23:46:06.401Z,14.50
2018-07-12T23:48:35.694Z,14.53
2018-07-12T23:51:04.969Z,15.17
2018-07-12T23:53:34.098Z,13.43
2018-07-12T23:56:03.330Z,14.93
2018-07-12T23:58:33.505Z,15.00
